LSZF weather

Birrfeld Airport
Canton of Aargau, Switzerland

Public forecast

Using degrees Celsius for public forecast. Weather courtesy of forecast.io.

Closest aviation weather report (METAR) to Birrfeld Airport

Closest report is Zürich Airport, 12.9 nm (23.8 km) E. Retrieved 2019/12/13 04:20 UTC (34 minutes ago):

LSZH 130420Z VRB03KT 8000 FEW008 BKN040 M00/M01 Q0985 TEMPO 4500 -SN

Closest aviation forecast (TAF) to Birrfeld Airport

Closest forecast is Zürich Airport, 12.9 nm (23.8 km) E. Retrieved 2019-12-13 03:23 UTC (2 hours ago):

TAF LSZH 130225Z 1303/1409 VRB03KT 6000 FEW010 BKN035 TX04/1314Z TNM00/1303Z TN02/1405Z TEMPO 1306/1309 3000 SNRA PROB40 TEMPO 1306/1308 1200 SN BKN008 TEMPO 1310/1318 4500 SHRA SCT030TCU BECMG 1309/1312 24010KT TEMPO 1312/1319 25015G30KT TEMPO 1403/1409 RA